Pagrindinis puslapis
METAR-TAF:

METAR-TAF

Oro uostai :

Wadi ad-Dawasir, Saudo Arabija

platuma: 20-30N, ilguma: 045-12E, Aukštis: 624 m

Dabartinis oras

Ataskaita buvo paskelbta 43 minutes, ne 10:00 UTC
Vėjas 10 kt iš Rytų/Šiaurės Rytų
Temperatūra 37°C
Drėgmė 25%
Slėgis 1014 hPa
Matomumas 10 km arba daugiau
Mažai debesys ne aukštis 3000 ft

METAR: OEWD 141000Z 06010KT 9999 FEW030 37/14 Q1014 NOSIG

Laikas: 13:43 (10:43 UTC)

Prognozė

Ataskaita buvo paskelbta 11 valandos ir 43 minutes, ne 23:00 UTC
Prognozė galioja nuo 14 metu 00 UTC su 15 metu 06 UTC
Vėjas 5 kt iš Rytų/Pietryčių
Matomumas 10 km arba daugiau
Mažai debesys ne aukštis 4000 ft
Tapsmas
nuo 14 metu 06 UTC su 14 metu 08 UTC
Vėjas 6 kt iš Rytų su gūsio iki 16 kt
Laikinai
nuo 14 metu 12 UTC su 14 metu 16 UTC
Matomumas: 4000 m
dulkės, Dulkes pustymas

TAF: OEWD 132300Z 1400/1506 11005KT 9999 FEW040 BECMG 1406/1408 09006G16KT TEMPO 1412/1416 4000 DU BLDU

Orai ataskaitas ir orų prognozės (METAR, TAF).

turimą stotys yra geltonos ir raudonos taškus žemėlapyje.

Perkelti pele per norėdami pamatyti stoties vardą.

Tada spustelėkite, norėdami matyti oro stebėjimo ir prognozės.

Norėdami pakeisti žemėlapį: spustelėkite ant žalios mygtukų su juodo kryžiaus žemyn,; žalią mygtuką su brūkšneliu, jei norite nutolinti; arba žalių rodyklių gretimoms žemėlapius.


METAR-TAF: